Provisional Data: Baldwin Run near Wellsboro Junction, PA


Please select a monitoring station.
Please select start date.
Please select start date.

Toggle Unit: C/F Toggle Unit: C/F
Sample Time Temperature (C) Temperature (F) Specific Conductivity (mS/cm) pH   Turbidity (NTU+) DO (mg/L)
1/12/2021 12:00:00 AM 0.67 33.206 0.058 6.81 51.05 13.91
1/12/2021 12:15:00 AM 0.66 33.188 0.058 6.81 45.46 13.91
1/12/2021 12:30:00 AM 0.65 33.17 0.058 6.8 64.57 13.92
1/12/2021 12:45:00 AM 0.65 33.17 0.058 6.8 59.04 13.92
1/12/2021 1:00:00 AM 0.66 33.188 0.058 6.81 49.94 13.92
1/12/2021 1:15:00 AM 0.67 33.206 0.058 6.81 58.74 13.91
1/12/2021 1:30:00 AM 0.68 33.224 0.058 6.82 43.54 13.91
1/12/2021 1:45:00 AM 0.69 33.242 0.058 6.8 55.51 13.91
1/12/2021 2:00:00 AM 0.69 33.242 0.058 6.82 38.61 13.91
1/12/2021 2:15:00 AM 0.69 33.242 0.058 6.82 62.22 13.91
1/12/2021 2:30:00 AM 0.69 33.242 0.058 6.81 67.2 13.91
1/12/2021 2:45:00 AM 0.69 33.242 0.058 6.81 42.29 13.91
1/12/2021 3:00:00 AM 0.68 33.224 0.058 6.82 36.93 13.91
1/12/2021 3:15:00 AM 0.68 33.224 0.058 6.82 60.03 13.91
1/12/2021 3:30:00 AM 0.68 33.224 0.058 6.81 70.69 13.91
1/12/2021 3:45:00 AM 0.67 33.206 0.058 6.82 33.64 13.91
1/12/2021 4:00:00 AM 0.66 33.188 0.058 6.83 66.65 13.91
1/12/2021 4:15:00 AM 0.66 33.188 0.058 6.82 80.79 13.91
1/12/2021 4:30:00 AM 0.65 33.17 0.058 6.81 56.85 13.92
1/12/2021 4:45:00 AM 0.64 33.152 0.058 6.81 37.48 13.92
1/12/2021 5:00:00 AM 0.64 33.152 0.058 6.83 78.76 13.92
1/12/2021 5:15:00 AM 0.64 33.152 0.058 6.83 37.45 13.92
1/12/2021 5:30:00 AM 0.63 33.134 0.058 6.82 34.51 13.92
1/12/2021 5:45:00 AM 0.63 33.134 0.058 6.81 58.1 13.92
1/12/2021 6:00:00 AM 0.62 33.116 0.058 6.81 41.08 13.93
1/12/2021 6:15:00 AM 0.59 33.062 0.058 6.81 57.29 13.94
1/12/2021 6:30:00 AM 0.56 33.008 0.058 6.81 75.83 13.95
1/12/2021 6:45:00 AM 0.55 32.99 0.058 6.81 34.05 13.95
1/12/2021 7:00:00 AM 0.54 32.972 0.058 6.82 76.03 13.96
1/12/2021 7:15:00 AM 0.53 32.954 0.058 6.82 31.68 13.97
1/12/2021 7:30:00 AM 0.52 32.936 0.058 6.82 63.14 13.98
1/12/2021 7:45:00 AM 0.51 32.918 0.058 6.81 94.2 13.97
1/12/2021 8:00:00 AM 0.52 32.936 0.058 6.8 119.41 13.97
1/12/2021 8:15:00 AM 0.52 32.936 0.058 6.81 40.34 13.98
1/12/2021 8:30:00 AM 0.53 32.954 0.058 6.81 69.22 13.98
1/12/2021 8:45:00 AM 0.55 32.99 0.059 6.81 156.19 13.98
1/12/2021 9:00:00 AM 0.58 33.044 0.059 6.81 83.58 13.97
1/12/2021 9:15:00 AM 0.62 33.116 0.058 6.81 92.19 13.96
1/12/2021 9:30:00 AM 0.65 33.17 0.058 6.82 56.34 13.96
1/12/2021 9:45:00 AM 0.67 33.206 0.059 6.81 53.97 13.95
1/12/2021 10:00:00 AM 0.71 33.278 0.058 6.82 78.86 13.93
1/12/2021 10:15:00 AM 0.75 33.35 0.058 6.84 99.14 13.92
1/12/2021 10:30:00 AM 0.8 33.44 0.058 6.83 53.42 13.9
1/12/2021 10:45:00 AM 0.83 33.494 0.058 6.83 33.76 13.89
1/12/2021 11:00:00 AM 0.85 33.53 0.058 6.85 38.63 13.88
1/12/2021 11:15:00 AM 0.86 33.548 0.058 6.84 69.46 13.87
1/12/2021 11:30:00 AM 0.89 33.602 0.058 6.84 42.79 13.86
1/12/2021 11:45:00 AM 0.93 33.674 0.058 6.85 82.47 13.84
1/12/2021 12:00:00 PM 0.96 33.728 0.058 6.84 53.25 13.83
1/12/2021 12:15:00 PM 0.99 33.782 0.058 6.83 52 13.81
1/12/2021 12:30:00 PM 1.02 33.836 0.058 6.84 40.86 13.8
1/12/2021 12:45:00 PM 1.06 33.908 0.058 6.84 39.51 13.78
1/12/2021 1:00:00 PM 1.08 33.944 0.058 6.84 45.42 13.77
1/12/2021 1:15:00 PM 1.1 33.98 0.058 6.84 41.4 13.76
1/12/2021 1:30:00 PM 1.12 34.016 0.058 6.85 62.94 13.75
1/12/2021 1:45:00 PM 1.14 34.052 0.058 6.84 63.75 13.74
1/12/2021 2:00:00 PM 1.13 34.034 0.058 6.83 60.02 13.73
1/12/2021 2:15:00 PM 1.13 34.034 0.058 6.85 60.97 13.73
1/12/2021 2:30:00 PM 1.15 34.07 0.058 6.84 51.16 13.72
1/12/2021 2:45:00 PM 1.15 34.07 0.058 6.84 51.92 13.71
1/12/2021 3:00:00 PM 1.16 34.088 0.058 6.83 61.43 13.71
1/12/2021 3:15:00 PM 1.15 34.07 0.058 6.85 79.1 13.71
1/12/2021 3:30:00 PM 1.16 34.088 0.058 6.84 49.27 13.71
1/12/2021 3:45:00 PM 1.14 34.052 0.058 6.83 36.12 13.71
1/12/2021 4:00:00 PM 1.12 34.016 0.058 6.84 105.74 13.71
1/12/2021 4:15:00 PM 1.11 33.998 0.058 6.84 37.18 13.71
1/12/2021 4:30:00 PM 1.1 33.98 0.058 6.84 52.57 13.71
2/4/2021 10:45:00 AM 0.13 32.234 0.067 6.96 35.66 14.09
2/4/2021 11:00:00 AM -99999.99 -179968 -99999.99 -99999.99 -99999.99 -99999.99
2/4/2021 11:15:00 AM 0.15 32.27 0.067 6.95 30.56 14.08
2/4/2021 11:30:00 AM 0.15 32.27 0.067 6.92 35.44 14.07
2/4/2021 11:45:00 AM 0.16 32.288 0.067 6.96 31.44 14.07
2/4/2021 12:00:00 PM 0.17 32.306 0.067 6.95 24.38 14.06
2/4/2021 12:15:00 PM 0.18 32.324 0.067 6.96 30.86 14.05
2/4/2021 12:30:00 PM 0.18 32.324 0.067 6.95 40.17 14.04
2/4/2021 12:45:00 PM 0.18 32.324 0.067 6.97 40.52 14.03
2/4/2021 1:00:00 PM 0.19 32.342 0.067 6.94 44.55 14.03
2/4/2021 1:15:00 PM 0.19 32.342 0.067 6.96 71.07 14.03
2/4/2021 1:30:00 PM 0.2 32.36 0.067 6.95 77.84 14.03
2/4/2021 1:45:00 PM 0.2 32.36 0.067 6.95 51.67 14.02
2/4/2021 2:00:00 PM 0.2 32.36 0.067 6.96 63.7 14.02
2/4/2021 2:15:00 PM 0.21 32.378 0.067 6.96 39.57 14.01
2/4/2021 2:30:00 PM 0.22 32.396 0.067 6.96 41.58 14.01
2/4/2021 2:45:00 PM 0.22 32.396 0.067 6.95 48.45 14
2/4/2021 3:00:00 PM 0.21 32.378 0.067 6.96 58.8 14
2/4/2021 3:15:00 PM 0.22 32.396 0.067 6.95 40.36 14
2/4/2021 3:30:00 PM 0.23 32.414 0.067 6.96 45.62 13.99
2/4/2021 3:45:00 PM 0.24 32.432 0.067 6.94 39.95 13.99
2/4/2021 4:00:00 PM 0.24 32.432 0.067 6.96 56.81 13.99
2/4/2021 4:15:00 PM 0.25 32.45 0.067 6.96 58.47 13.98
2/4/2021 4:30:00 PM 0.25 32.45 0.068 6.96 53.29 13.97
2/4/2021 4:45:00 PM 0.25 32.45 0.068 6.96 46.03 13.97
2/4/2021 5:00:00 PM 0.23 32.414 0.068 6.96 54.59 13.97
2/4/2021 5:15:00 PM 0.25 32.45 0.068 6.96 52.77 13.96
2/4/2021 5:30:00 PM 0.27 32.486 0.068 6.97 80.59 13.95
2/4/2021 5:45:00 PM 0.27 32.486 0.068 6.95 53.62 13.94
2/4/2021 6:00:00 PM 0.28 32.504 0.068 6.97 56 13.94
2/4/2021 6:15:00 PM 0.25 32.45 0.069 6.97 64.38 13.94
2/4/2021 6:30:00 PM 0.23 32.414 0.069 6.96 63.61 13.97
2/4/2021 6:45:00 PM 0.24 32.432 0.069 6.97 99.5 13.97
2/4/2021 7:00:00 PM -99999.99 -179968 -99999.99 -99999.99 -99999.99 -99999.99
2/4/2021 7:15:00 PM -99999.99 -179968 -99999.99 -99999.99 -99999.99 -99999.99
2/4/2021 7:30:00 PM -99999.99 -179968 -99999.99 -99999.99 -99999.99 -99999.99
2/4/2021 7:45:00 PM -99999.99 -179968 -99999.99 -99999.99 -99999.99 -99999.99
2/4/2021 8:00:00 PM -99999.99 -179968 -99999.99 -99999.99 -99999.99 -99999.99
2/4/2021 8:15:00 PM -99999.99 -179968 -99999.99 -99999.99 -99999.99 -99999.99
2/4/2021 8:30:00 PM -99999.99 -179968 -99999.99 -99999.99 -99999.99 -99999.99
2/4/2021 8:45:00 PM -99999.99 -179968 -99999.99 -99999.99 -99999.99 -99999.99
2/4/2021 9:00:00 PM -99999.99 -179968 -99999.99 -99999.99 -99999.99 -99999.99
2/4/2021 9:15:00 PM -99999.99 -179968 -99999.99 -99999.99 -99999.99 -99999.99
2/4/2021 9:30:00 PM -99999.99 -179968 -99999.99 -99999.99 -99999.99 -99999.99
2/4/2021 9:45:00 PM -99999.99 -179968 -99999.99 -99999.99 -99999.99 -99999.99
2/4/2021 10:00:00 PM -99999.99 -179968 -99999.99 -99999.99 -99999.99 -99999.99
2/4/2021 10:15:00 PM -99999.99 -179968 -99999.99 -99999.99 -99999.99 -99999.99
2/4/2021 10:30:00 PM -99999.99 -179968 -99999.99 -99999.99 -99999.99 -99999.99
2/4/2021 10:45:00 PM -99999.99 -179968 -99999.99 -99999.99 -99999.99 -99999.99
2/4/2021 11:00:00 PM -99999.99 -179968 -99999.99 -99999.99 -99999.99 -99999.99
2/4/2021 11:15:00 PM -99999.99 -179968 -99999.99 -99999.99 -99999.99 -99999.99
2/4/2021 11:30:00 PM -99999.99 -179968 -99999.99 -99999.99 -99999.99 -99999.99
2/5/2021 8:45:00 AM -99999.99 -179968 -99999.99 -99999.99 -99999.99 -99999.99
2/5/2021 9:00:00 AM 0.3 32.54 0.068 6.97 62.41 13.82
2/5/2021 9:15:00 AM 0.33 32.594 0.068 6.99 42.68 13.81
2/5/2021 9:30:00 AM 0.34 32.612 0.068 6.98 37.39 13.8
2/5/2021 9:45:00 AM 0.35 32.63 0.068 6.98 33.25 13.79
2/5/2021 10:00:00 AM 0.37 32.666 0.068 6.99 47.21 13.8
2/5/2021 10:15:00 AM 0.38 32.684 0.068 6.97 56.81 13.78
2/5/2021 10:30:00 AM 0.4 32.72 0.068 6.99 73.01 13.78
2/5/2021 10:45:00 AM 0.41 32.738 0.067 6.99 41.2 13.78
2/5/2021 11:00:00 AM 0.4 32.72 0.067 6.99 62.02 13.78
2/5/2021 11:15:00 AM 0.38 32.684 0.067 6.99 48.72 13.79
2/5/2021 11:30:00 AM 0.39 32.702 0.067 6.96 58.08 13.79
2/5/2021 11:45:00 AM 0.36 32.648 0.067 6.99 37.44 13.78
2/5/2021 12:00:00 PM 0.29 32.522 0.067 6.99 40.65 13.82
2/5/2021 12:15:00 PM 0.2 32.36 0.067 6.99 83.05 13.83
2/5/2021 12:30:00 PM 0.27 32.486 0.067 6.98 44.63 13.84
2/5/2021 12:45:00 PM 0.33 32.594 0.067 6.99 37.16 13.81
2/5/2021 1:00:00 PM 0.37 32.666 0.067 6.99 42.48 13.79
2/5/2021 1:15:00 PM 0.39 32.702 0.067 6.98 55.98 13.79
2/5/2021 1:30:00 PM 0.37 32.666 0.067 6.99 56.94 13.79
2/5/2021 1:45:00 PM 0.36 32.648 0.067 6.99 140.87 13.8
2/5/2021 2:00:00 PM 0.36 32.648 0.067 6.99 39.19 13.81
2/5/2021 2:15:00 PM 0.38 32.684 0.067 6.99 43.54 13.8
2/5/2021 2:30:00 PM 0.38 32.684 0.067 6.98 40.58 13.8
2/5/2021 2:45:00 PM 0.4 32.72 0.068 7 39.29 13.79
2/5/2021 3:00:00 PM 0.37 32.666 0.068 6.98 52.62 13.8
2/5/2021 3:15:00 PM 0.39 32.702 0.068 7 32.71 13.8
2/5/2021 3:30:00 PM 0.41 32.738 0.068 6.98 58.93 13.79
2/5/2021 3:45:00 PM 0.42 32.756 0.068 7 43.01 13.79
2/5/2021 4:00:00 PM 0.41 32.738 0.068 6.99 39.24 13.79
2/5/2021 4:15:00 PM 0.42 32.756 0.068 6.99 143.81 13.79
2/5/2021 4:30:00 PM 0.42 32.756 0.068 6.99 53.98 13.79
2/5/2021 4:45:00 PM 0.31 32.558 0.068 6.99 77.99 13.8
2/5/2021 5:00:00 PM 0.32 32.576 0.068 6.98 110.74 13.83
2/5/2021 5:15:00 PM 0.34 32.612 0.068 6.98 34.85 13.82
2/5/2021 5:30:00 PM 0.36 32.648 0.068 6.98 68.28 13.81
2/5/2021 5:45:00 PM 0.38 32.684 0.068 6.98 75.85 13.81
2/5/2021 6:00:00 PM 0.38 32.684 0.068 6.97 79.47 13.81
2/5/2021 6:15:00 PM 0.34 32.612 0.068 6.98 114.91 13.82
2/5/2021 6:30:00 PM 0.3 32.54 0.068 6.98 74.88 13.85
2/5/2021 6:45:00 PM 0.34 32.612 0.068 6.98 71.32 13.83
2/5/2021 7:00:00 PM 0.37 32.666 0.068 6.98 75.83 13.83
2/5/2021 7:15:00 PM 0.37 32.666 0.068 6.98 47.27 13.82
2/5/2021 7:30:00 PM 0.38 32.684 0.068 6.98 40.35 13.82
2/5/2021 7:45:00 PM 0.39 32.702 0.068 6.98 72.43 13.83
2/5/2021 8:00:00 PM 0.38 32.684 0.068 6.98 56.92 13.83
2/5/2021 8:15:00 PM 0.39 32.702 0.068 6.99 47.21 13.84
2/5/2021 8:30:00 PM 0.38 32.684 0.068 6.98 64.28 13.84
2/5/2021 8:45:00 PM 0.37 32.666 0.068 6.99 101.01 13.86
2/5/2021 9:00:00 PM 0.37 32.666 0.068 6.98 78.86 13.86
2/5/2021 9:15:00 PM 0.37 32.666 0.068 6.98 41.25 13.86
2/5/2021 9:30:00 PM 0.36 32.648 0.068 6.98 111.67 13.87
2/5/2021 9:45:00 PM 0.37 32.666 0.068 6.98 47.28 13.86
2/5/2021 10:00:00 PM 0.37 32.666 0.068 6.98 91.34 13.86
2/5/2021 10:15:00 PM 0.37 32.666 0.068 6.98 43.37 13.86
2/5/2021 10:30:00 PM 0.37 32.666 0.068 6.98 53.31 13.86
2/5/2021 10:45:00 PM 0.36 32.648 0.068 6.97 67.65 13.88
2/5/2021 11:00:00 PM 0.36 32.648 0.068 6.98 35.38 13.88
2/5/2021 11:15:00 PM 0.37 32.666 0.068 6.97 58.33 13.88
2/5/2021 11:30:00 PM 0.37 32.666 0.068 6.97 97.63 13.88
2/5/2021 11:45:00 PM 0.36 32.648 0.068 6.98 86.74 13.88
2/6/2021 12:00:00 AM 0.35 32.63 0.068 6.97 63.49 13.88
2/6/2021 12:15:00 AM 0.36 32.648 0.068 6.97 64.13 13.88
2/6/2021 12:30:00 AM 0.35 32.63 0.068 6.97 154.96 13.88
2/6/2021 12:45:00 AM 0.31 32.558 0.068 6.98 44.2 13.87
2/6/2021 1:00:00 AM 0.33 32.594 0.068 6.98 74.78 13.89
2/6/2021 1:15:00 AM 0.33 32.594 0.068 6.97 56.61 13.89
2/6/2021 1:30:00 AM 0.34 32.612 0.068 6.97 40.12 13.88
2/6/2021 1:45:00 AM 0.34 32.612 0.068 6.97 72.86 13.88
2/6/2021 2:00:00 AM 0.35 32.63 0.068 6.98 32.71 13.87
2/6/2021 2:15:00 AM 0.35 32.63 0.068 6.97 46.49 13.88
2/6/2021 2:30:00 AM 0.35 32.63 0.068 6.98 65.52 13.88
2/6/2021 2:45:00 AM 0.35 32.63 0.068 6.98 50.8 13.88
2/6/2021 3:00:00 AM 0.35 32.63 0.068 6.98 43.61 13.88
2/6/2021 3:15:00 AM 0.34 32.612 0.068 6.98 75.67 13.88
2/6/2021 3:30:00 AM 0.34 32.612 0.068 6.97 63.1 13.88
2/6/2021 3:45:00 AM 0.33 32.594 0.068 6.98 45.71 13.89
2/6/2021 4:00:00 AM 0.33 32.594 0.068 6.97 35.33 13.89
2/6/2021 4:15:00 AM 0.33 32.594 0.068 6.97 64.41 13.89
2/6/2021 4:30:00 AM 0.33 32.594 0.068 6.97 66.29 13.9
2/6/2021 4:45:00 AM 0.33 32.594 0.068 6.97 89.03 13.9
2/6/2021 5:00:00 AM 0.33 32.594 0.068 6.96 33.48 13.9
2/6/2021 5:15:00 AM 0.34 32.612 0.068 6.98 44.9 13.9
2/6/2021 5:30:00 AM 0.34 32.612 0.068 6.98 37.99 13.9
2/6/2021 5:45:00 AM 0.34 32.612 0.068 6.98 27.79 13.9
2/6/2021 6:00:00 AM 0.33 32.594 0.068 6.98 44.04 13.91
2/6/2021 6:15:00 AM 0.34 32.612 0.068 6.97 40.41 13.91
2/6/2021 6:30:00 AM 0.31 32.558 0.068 6.98 57.7 13.91
2/6/2021 6:45:00 AM 0.3 32.54 0.068 6.97 32.43 13.92
2/6/2021 7:00:00 AM 0.31 32.558 0.068 6.98 63.81 13.93
2/6/2021 7:15:00 AM 0.31 32.558 0.068 6.98 63.39 13.94
2/6/2021 7:30:00 AM 0.31 32.558 0.068 6.98 37.61 13.94
2/6/2021 7:45:00 AM 0.32 32.576 0.068 6.99 46.91 13.94
2/6/2021 8:00:00 AM 0.31 32.558 0.068 6.98 42.36 13.95
2/6/2021 8:15:00 AM 0.31 32.558 0.068 6.98 43.53 13.97
2/6/2021 8:30:00 AM 0.3 32.54 0.068 6.99 45.68 13.97
2/6/2021 8:45:00 AM 0.3 32.54 0.068 6.99 60.16 13.98
2/6/2021 9:00:00 AM 0.3 32.54 0.068 7 48.87 13.98
2/6/2021 9:15:00 AM 0.3 32.54 0.068 6.97 51.43 13.99
2/6/2021 9:30:00 AM 0.31 32.558 0.068 6.99 33.03 13.99
2/6/2021 9:45:00 AM 0.32 32.576 0.068 6.98 43.67 14
2/6/2021 10:00:00 AM 0.33 32.594 0.068 7 30.69 14
2/6/2021 10:15:00 AM 0.33 32.594 0.068 6.97 27.11 14
2/6/2021 10:30:00 AM 0.32 32.576 0.068 7 43.37 14
2/6/2021 10:45:00 AM 0.33 32.594 0.068 6.99 99.75 14.01
2/6/2021 11:00:00 AM 0.33 32.594 0.068 7 85.17 14.01
2/6/2021 11:15:00 AM 0.34 32.612 0.068 7 26.8 14
2/6/2021 11:30:00 AM 0.34 32.612 0.068 7 27.21 14.01
2/6/2021 11:45:00 AM 0.35 32.63 0.068 6.99 58.84 14
2/6/2021 12:00:00 PM 0.34 32.612 0.068 7 85.67 14
2/6/2021 12:15:00 PM 0.33 32.594 0.068 7 92.36 14.01
2/6/2021 12:30:00 PM 0.33 32.594 0.068 7 59 14
2/6/2021 12:45:00 PM 0.31 32.558 0.068 6.99 34.09 14.01
2/6/2021 1:00:00 PM 0.33 32.594 0.068 7 45.64 14
2/6/2021 1:15:00 PM 0.33 32.594 0.068 6.99 53.76 13.99
2/6/2021 1:30:00 PM 0.34 32.612 0.068 6.99 76.58 13.99
2/6/2021 1:45:00 PM 0.34 32.612 0.068 7 90.28 13.99
2/6/2021 2:00:00 PM 0.34 32.612 0.068 7 33.66 13.99
2/6/2021 2:15:00 PM 0.35 32.63 0.068 7 32.78 13.99
2/6/2021 2:30:00 PM 0.35 32.63 0.068 6.99 59.12 13.99
2/6/2021 2:45:00 PM 0.36 32.648 0.068 6.98 60.87 13.99
2/6/2021 3:00:00 PM 0.34 32.612 0.068 7 33.82 13.99
2/6/2021 3:15:00 PM 0.36 32.648 0.068 7 64.51 13.99
2/6/2021 3:30:00 PM 0.37 32.666 0.069 7 28.06 13.99
2/6/2021 3:45:00 PM 0.37 32.666 0.069 7 36.89 13.99
2/6/2021 4:00:00 PM 0.37 32.666 0.069 6.99 42.69 14
2/6/2021 4:15:00 PM 0.37 32.666 0.069 7 75.72 14
2/6/2021 4:30:00 PM 0.37 32.666 0.069 6.99 52.17 14
2/6/2021 4:45:00 PM 0.36 32.648 0.069 7 29.39 14
2/6/2021 5:00:00 PM 0.37 32.666 0.069 6.99 47.05 14
2/6/2021 5:15:00 PM 0.37 32.666 0.069 7 31.34 14.01
2/6/2021 5:30:00 PM 0.37 32.666 0.069 6.99 57.31 14
2/6/2021 5:45:00 PM 0.37 32.666 0.069 6.99 79.26 14
2/6/2021 6:00:00 PM 0.37 32.666 0.069 6.99 53.63 14
2/6/2021 6:15:00 PM 0.28 32.504 0.069 6.99 46.28 14.02
2/6/2021 6:30:00 PM 0.31 32.558 0.069 6.99 35.63 14.03
2/6/2021 6:45:00 PM 0.32 32.576 0.069 6.99 77.93 14.03
2/6/2021 7:00:00 PM 0.33 32.594 0.069 7 46.68 14.03
2/6/2021 7:15:00 PM 0.33 32.594 0.069 6.99 41.43 14.02
2/6/2021 7:30:00 PM 0.34 32.612 0.069 6.98 64.1 14.02
2/6/2021 7:45:00 PM 0.34 32.612 0.069 6.99 88.39 14.03
2/6/2021 8:00:00 PM 0.33 32.594 0.069 6.99 34.38 14.03
2/6/2021 8:15:00 PM 0.33 32.594 0.069 6.99 47.15 14.03
2/6/2021 8:30:00 PM 0.33 32.594 0.069 6.99 42.33 14.04
2/6/2021 8:45:00 PM 0.32 32.576 0.069 6.98 47.43 14.04
2/6/2021 9:00:00 PM 0.31 32.558 0.069 6.99 34.92 14.04
2/6/2021 9:15:00 PM 0.3 32.54 0.069 6.99 126.54 14.05
2/6/2021 9:30:00 PM 0.29 32.522 0.069 6.99 59.57 14.06
2/6/2021 9:45:00 PM 0.27 32.486 0.069 6.98 32.18 14.06
2/6/2021 10:00:00 PM 0.26 32.468 0.069 6.97 34.96 14.06
2/6/2021 10:15:00 PM 0.26 32.468 0.069 6.99 68.33 14.07
2/6/2021 10:30:00 PM 0.26 32.468 0.069 6.97 47.25 14.07
2/6/2021 10:45:00 PM 0.25 32.45 0.069 6.98 34.73 14.06
2/6/2021 11:00:00 PM 0.24 32.432 0.069 6.97 46.84 14.07
2/6/2021 11:15:00 PM 0.23 32.414 0.069 6.99 41.51 14.07
2/6/2021 11:30:00 PM 0.22 32.396 0.069 6.98 36.25 14.07
2/6/2021 11:45:00 PM 0.21 32.378 0.069 6.98 41.11 14.08
2/7/2021 12:00:00 AM 0.2 32.36 0.069 6.98 39.85 14.08
2/7/2021 12:15:00 AM 0.18 32.324 0.069 6.96 72 14.08
2/7/2021 12:30:00 AM 0.17 32.306 0.069 6.99 141.66 14.09
2/7/2021 12:45:00 AM 0.16 32.288 0.069 6.98 50.15 14.09
2/7/2021 1:00:00 AM 0.15 32.27 0.069 6.98 43.05 14.08
2/7/2021 1:15:00 AM 0.14 32.252 0.069 6.97 95.98 14.09
2/7/2021 1:30:00 AM 0.13 32.234 0.069 6.96 30.29 14.09
2/7/2021 1:45:00 AM 0.11 32.198 0.069 6.98 70.68 14.1
2/7/2021 2:00:00 AM 0.11 32.198 0.069 6.98 29.17 14.1
2/7/2021 2:15:00 AM 0.1 32.18 0.069 6.96 45.38 14.1
2/7/2021 2:30:00 AM 0.09 32.162 0.069 6.97 53.65 14.11
2/7/2021 2:45:00 AM 0.08 32.144 0.069 6.98 26 14.11
2/7/2021 3:00:00 AM 0.07 32.126 0.069 6.98 24.68 14.11
2/7/2021 3:15:00 AM 0.07 32.126 0.069 6.98 32.28 14.11
2/7/2021 3:30:00 AM 0.06 32.108 0.07 6.97 57.78 14.12
2/7/2021 3:45:00 AM 0.05 32.09 0.07 6.98 31.34 14.12
2/7/2021 4:00:00 AM 0.04 32.072 0.07 6.98 48.74 14.12
2/7/2021 4:15:00 AM 0.04 32.072 0.07 6.98 34.09 14.12
2/7/2021 4:30:00 AM 0.04 32.072 0.07 6.98 31.24 14.12
2/7/2021 4:45:00 AM 0.03 32.054 0.07 6.98 37.06 14.12
2/7/2021 5:00:00 AM 0.03 32.054 0.07 6.97 52.64 14.12
2/7/2021 5:15:00 AM 0.02 32.036 0.07 6.98 32.7 14.12
2/7/2021 5:30:00 AM 0.02 32.036 0.07 6.97 26.83 14.13
2/7/2021 5:45:00 AM 0.01 32.018 0.07 6.98 32.88 14.12
2/7/2021 6:00:00 AM 0.01 32.018 0.07 6.97 46.54 14.12
2/7/2021 6:15:00 AM 0.01 32.018 0.07 6.97 53.08 14.11
2/7/2021 6:30:00 AM 0.01 32.018 0.07 6.97 44.43 14.11
2/7/2021 6:45:00 AM 0 32 0.07 6.98 67.09 14.11
2/7/2021 7:00:00 AM -99999.99 -179968 -99999.99 -99999.99 -99999.99 -99999.99
2/7/2021 7:15:00 AM -99999.99 -179968 -99999.99 -99999.99 -99999.99 -99999.99
2/7/2021 7:30:00 AM -99999.99 -179968 -99999.99 -99999.99 -99999.99 -99999.99
2/7/2021 7:45:00 AM -99999.99 -179968 -99999.99 -99999.99 -99999.99 -99999.99
2/7/2021 8:00:00 AM -99999.99 -179968 -99999.99 -99999.99 -99999.99 -99999.99
2/7/2021 8:15:00 AM -99999.99 -179968 -99999.99 -99999.99 -99999.99 -99999.99
2/7/2021 8:30:00 AM 0 32 0.07 7.04 39.82 14.13
2/7/2021 8:45:00 AM 0 32 0.07 7 32.96 14.13
2/7/2021 9:00:00 AM 0 32 0.07 6.99 82.22 14.13
2/7/2021 9:15:00 AM 0 32 0.07 7 25.69 14.13
2/7/2021 9:30:00 AM 0.01 32.018 0.07 6.99 45.56 14.13
2/7/2021 9:45:00 AM 0.01 32.018 0.07 7 30.86 14.13
2/7/2021 10:00:00 AM 0.02 32.036 0.07 7 37.12 14.13
2/7/2021 10:15:00 AM 0.01 32.018 0.07 6.99 38.54 14.13
2/7/2021 10:30:00 AM 0.02 32.036 0.07 6.99 60.08 14.13
2/7/2021 10:45:00 AM 0.03 32.054 0.07 6.99 28.75 14.13
2/7/2021 11:00:00 AM 0.04 32.072 0.07 6.99 30.43 14.13
2/7/2021 11:15:00 AM 0.04 32.072 0.07 7 30.41 14.12
2/7/2021 11:30:00 AM 0.05 32.09 0.07 7 33.65 14.12
2/7/2021 11:45:00 AM 0.06 32.108 0.07 7 57.82 14.11
2/7/2021 12:00:00 PM 0.07 32.126 0.07 6.99 60.64 14.11
2/7/2021 12:15:00 PM 0.08 32.144 0.07 7 45.93 14.11
2/7/2021 12:30:00 PM 0.07 32.126 0.07 7 53.48 14.1
2/7/2021 12:45:00 PM 0.06 32.108 0.069 7 38.49 14.1
2/7/2021 1:00:00 PM 0.08 32.144 0.069 7 37.12 14.1
2/7/2021 1:15:00 PM 0.1 32.18 0.069 7.02 35.87 14.09
2/7/2021 1:30:00 PM 0.11 32.198 0.069 7.01 26.51 14.08
2/7/2021 1:45:00 PM 0.12 32.216 0.069 7.01 33.94 14.07
2/7/2021 2:00:00 PM 0.13 32.234 0.069 7 47.15 14.07
2/7/2021 2:15:00 PM 0.14 32.252 0.069 7.01 41.51 14.06
2/7/2021 2:30:00 PM 0.15 32.27 0.069 7.02 31.65 14.06
2/7/2021 2:45:00 PM 0.15 32.27 0.069 7.02 46.1 14.05
2/7/2021 3:00:00 PM 0.16 32.288 0.069 7.01 57.98 14.04
2/7/2021 3:15:00 PM 0.17 32.306 0.069 7.01 58.54 14.05
2/7/2021 3:30:00 PM 0.18 32.324 0.069 7.01 41.64 14.04
2/7/2021 3:45:00 PM 0.18 32.324 0.069 7 73.6 14.04
2/7/2021 4:00:00 PM 0.16 32.288 0.069 7 31.02 14.04
2/7/2021 4:15:00 PM 0.18 32.324 0.069 7.01 44.68 14.05
2/7/2021 4:30:00 PM 0.2 32.36 0.069 7 45.28 14.04
2/7/2021 4:45:00 PM 0.21 32.378 0.07 7 24.81 14.04
2/7/2021 5:00:00 PM 0.21 32.378 0.07 6.99 46.95 14.04
2/7/2021 5:15:00 PM 0.22 32.396 0.07 7 28.99 14.03
2/7/2021 5:30:00 PM 0.23 32.414 0.07 7 39.51 14.03
2/7/2021 5:45:00 PM 0.23 32.414 0.07 7 91.05 14.03
2/7/2021 6:00:00 PM 0.23 32.414 0.07 6.99 76.41 14.03
2/7/2021 6:15:00 PM 0.22 32.396 0.07 7 58.38 14.04
2/7/2021 6:30:00 PM 0.23 32.414 0.07 7 76.03 14.04
2/7/2021 6:45:00 PM 0.23 32.414 0.07 6.99 56.16 14.04
2/7/2021 7:00:00 PM 0.23 32.414 0.07 7 34.65 14.05
2/7/2021 7:15:00 PM 0.22 32.396 0.07 6.99 52.93 14.06
2/7/2021 7:30:00 PM 0.19 32.342 0.07 7 41.62 14.08
2/7/2021 7:45:00 PM 0.21 32.378 0.07 6.99 56.13 14.08
2/7/2021 8:00:00 PM 0.21 32.378 0.07 6.99 40.34 14.09
2/7/2021 8:15:00 PM 0.2 32.36 0.07 6.99 40.25 14.09
2/7/2021 8:30:00 PM 0.2 32.36 0.07 6.99 41.16 14.1
2/7/2021 8:45:00 PM 0.19 32.342 0.07 7 31.48 14.11
2/7/2021 9:00:00 PM 0.19 32.342 0.07 6.99 29.7 14.12
2/7/2021 9:15:00 PM 0.18 32.324 0.07 6.99 51.29 14.12
2/7/2021 9:30:00 PM 0.17 32.306 0.07 6.99 51.27 14.12
2/7/2021 9:45:00 PM 0.17 32.306 0.07 6.99 62.9 14.13
2/7/2021 10:00:00 PM 0.16 32.288 0.07 7 48.66 14.13
2/7/2021 10:15:00 PM 0.15 32.27 0.07 6.99 81.07 14.14
2/7/2021 10:30:00 PM 0.14 32.252 0.07 6.98 54.67 14.14
2/7/2021 10:45:00 PM 0.12 32.216 0.07 6.99 69.81 14.16
2/7/2021 11:00:00 PM 0.12 32.216 0.07 7 27.55 14.16
2/7/2021 11:15:00 PM 0.12 32.216 0.07 6.99 36.64 14.16
2/7/2021 11:30:00 PM 0.1 32.18 0.07 6.99 68.73 14.17
2/7/2021 11:45:00 PM 0.09 32.162 0.07 6.99 40.04 14.18
2/8/2021 12:00:00 AM 0.08 32.144 0.07 7 38.94 14.19
2/8/2021 12:15:00 AM 0.08 32.144 0.07 6.99 36.55 14.19
2/8/2021 12:30:00 AM 0.07 32.126 0.07 6.99 39.02 14.2
2/8/2021 12:45:00 AM 0.06 32.108 0.07 6.99 24.04 14.21
2/8/2021 1:00:00 AM 0.05 32.09 0.07 6.98 46.08 14.21
2/8/2021 1:15:00 AM 0.05 32.09 0.07 6.99 92.22 14.22
2/8/2021 1:30:00 AM 0.04 32.072 0.07 6.99 28.06 14.22
2/8/2021 1:45:00 AM 0.04 32.072 0.07 6.99 39.94 14.23
2/8/2021 2:00:00 AM 0.03 32.054 0.07 6.99 63.33 14.24
2/8/2021 2:15:00 AM 0.02 32.036 0.07 6.98 30.27 14.25
2/8/2021 2:30:00 AM 0.01 32.018 0.07 6.99 68.42 14.25
2/8/2021 2:45:00 AM 0.01 32.018 0.07 6.99 68.94 14.25
2/8/2021 3:00:00 AM 0.01 32.018 0.07 6.99 38.1 14.25
2/8/2021 3:15:00 AM 0 32 0.07 6.99 28.2 14.26
2/8/2021 3:30:00 AM 0 32 0.07 6.99 26.52 14.26
2/8/2021 3:45:00 AM 0 32 0.07 6.99 25.67 14.26
2/8/2021 4:00:00 AM 0 32 0.071 6.99 43.12 14.27
2/8/2021 4:15:00 AM -0.01 31.982 0.071 6.99 41.07 14.27
2/8/2021 4:30:00 AM -0.01 31.982 0.071 6.99 29.9 14.27
2/8/2021 4:45:00 AM -0.01 31.982 0.071 7 40.38 14.28
2/8/2021 5:00:00 AM -0.01 31.982 0.071 6.98 24.06 14.28
2/8/2021 5:15:00 AM -0.02 31.964 0.071 6.99 44.83 14.28
2/8/2021 5:30:00 AM -0.02 31.964 0.071 6.97 44.12 14.28
2/8/2021 5:45:00 AM -0.02 31.964 0.071 6.99 20.29 14.29
2/8/2021 6:00:00 AM -0.03 31.946 0.071 6.99 24.46 14.29
2/8/2021 6:15:00 AM -0.03 31.946 0.071 6.99 48.25 14.29
2/8/2021 6:30:00 AM -0.03 31.946 0.071 7 35.75 14.3
2/8/2021 6:45:00 AM -0.03 31.946 0.071 6.99 30.65 14.29
2/8/2021 7:00:00 AM -0.03 31.946 0.071 6.99 25.49 14.29
2/8/2021 7:15:00 AM -0.03 31.946 0.071 6.98 26.81 14.3
2/8/2021 7:30:00 AM -0.03 31.946 0.071 6.99 24.33 14.3
2/8/2021 7:45:00 AM -0.03 31.946 0.071 6.99 31.98 14.31
2/8/2021 8:00:00 AM -0.03 31.946 0.071 6.98 32 14.32
2/8/2021 8:15:00 AM -0.03 31.946 0.071 6.99 32.24 14.32
2/8/2021 8:30:00 AM -0.02 31.964 0.071 7 20.41 14.33
2/8/2021 8:45:00 AM -0.02 31.964 0.071 7 40.63 14.33
2/8/2021 9:00:00 AM -0.02 31.964 0.071 6.99 28.95 14.33
2/8/2021 9:15:00 AM -0.02 31.964 0.071 7 38.58 14.34
2/8/2021 9:30:00 AM -0.02 31.964 0.072 7.01 48.99 14.34
2/8/2021 9:45:00 AM -0.02 31.964 0.072 7 27.75 14.34
2/8/2021 10:00:00 AM -0.02 31.964 0.072 7 35.09 14.35
2/8/2021 10:15:00 AM -0.01 31.982 0.072 6.99 44.78 14.35
2/8/2021 10:30:00 AM -0.01 31.982 0.072 7 34.4 14.34
2/8/2021 10:45:00 AM -0.01 31.982 0.072 7.01 70.89 14.35
2/8/2021 11:00:00 AM -0.01 31.982 0.072 7 25.1 14.35
2/8/2021 11:15:00 AM -0.01 31.982 0.071 7.01 26.74 14.35
2/8/2021 11:30:00 AM -0.01 31.982 0.071 7.01 52.98 14.35
2/8/2021 11:45:00 AM 0 32 0.071 7.02 28.13 14.34
2/8/2021 12:00:00 PM 0 32 0.071 7.01 62.07 14.34
2/8/2021 12:15:00 PM 0 32 0.071 7.01 40.28 14.34
2/8/2021 12:30:00 PM 0 32 0.071 7.02 34.18 14.33
2/8/2021 12:45:00 PM 0 32 0.071 7 39.19 14.33
2/8/2021 1:00:00 PM 0 32 0.071 7.01 26.21 14.33
2/8/2021 1:15:00 PM 0 32 0.071 7.01 54.75 14.32
2/8/2021 1:30:00 PM 0 32 0.071 7.01 32.35 14.32
2/8/2021 1:45:00 PM 0 32 0.071 7.01 72.09 14.32
2/8/2021 2:00:00 PM 0 32 0.071 7.02 31.54 14.31
2/8/2021 2:15:00 PM -0.01 31.982 0.071 6.99 54.55 14.31
2/8/2021 2:30:00 PM -0.01 31.982 0.071 7.01 41.72 14.31
2/8/2021 2:45:00 PM 0 32 0.071 7 25.49 14.32
2/8/2021 3:00:00 PM 0 32 0.071 7.01 42.72 14.31
2/8/2021 3:15:00 PM 0 32 0.071 7 33.48 14.3
2/8/2021 3:30:00 PM 0 32 0.071 7.01 89.31 14.31
2/8/2021 3:45:00 PM 0 32 0.071 7 75.62 14.3
2/8/2021 4:00:00 PM 0 32 0.071 7 27.5 14.3
2/8/2021 4:15:00 PM 0 32 0.071 6.99 53.17 14.3
2/8/2021 4:30:00 PM 0 32 0.071 7 28.09 14.3
2/8/2021 4:45:00 PM 0 32 0.071 7 31.78 14.29
2/8/2021 5:00:00 PM 0 32 0.071 6.99 35.35 14.29
2/8/2021 5:15:00 PM 0 32 0.071 7 48.71 14.28
2/8/2021 5:30:00 PM 0 32 0.071 6.99 27.93 14.28
2/8/2021 5:45:00 PM 0 32 0.071 6.99 103.89 14.27
2/8/2021 6:00:00 PM 0 32 0.071 6.99 36.9 14.28
2/8/2021 6:15:00 PM 0 32 0.071 6.98 45.73 14.27
2/8/2021 6:30:00 PM 0 32 0.071 6.98 28.13 14.27
2/8/2021 6:45:00 PM 0 32 0.071 7 106.29 14.28
2/8/2021 7:00:00 PM 0 32 0.071 6.97 28.87 14.28
2/8/2021 7:15:00 PM 0 32 0.071 6.98 39.69 14.27
2/8/2021 7:30:00 PM 0 32 0.071 6.99 33.37 14.28
2/8/2021 7:45:00 PM 0 32 0.071 6.99 68.91 14.28
2/8/2021 8:00:00 PM 0 32 0.071 6.98 28.39 14.27
2/8/2021 8:15:00 PM 0 32 0.071 6.99 32.37 14.27
2/8/2021 8:30:00 PM 0.01 32.018 0.071 6.98 30.13 14.27
2/8/2021 8:45:00 PM 0.01 32.018 0.071 6.98 44.53 14.27
2/8/2021 9:00:00 PM 0.01 32.018 0.071 6.99 53.51 14.27
2/8/2021 9:15:00 PM 0.01 32.018 0.071 6.99 38.15 14.27
2/8/2021 9:30:00 PM 0.01 32.018 0.071 6.99 55.55 14.27
2/8/2021 9:45:00 PM 0.01 32.018 0.071 6.97 36.66 14.27
2/8/2021 10:00:00 PM 0.01 32.018 0.071 6.98 30.96 14.26
2/8/2021 10:15:00 PM 0.01 32.018 0.071 6.97 32.02 14.26
2/8/2021 10:30:00 PM 0.01 32.018 0.071 6.98 46.74 14.26
2/8/2021 10:45:00 PM 0.01 32.018 0.071 6.99 28.87 14.26
2/8/2021 11:00:00 PM 0.01 32.018 0.071 6.98 27.77 14.27
2/8/2021 11:15:00 PM 0.01 32.018 0.071 6.99 24.39 14.26
2/8/2021 11:30:00 PM 0.02 32.036 0.071 6.99 27.51 14.25
2/8/2021 11:45:00 PM 0.02 32.036 0.071 7 28.74 14.25
2/9/2021 12:00:00 AM 0.02 32.036 0.071 6.98 31.45 14.25
2/9/2021 12:15:00 AM 0.02 32.036 0.071 6.99 35.55 14.25
2/9/2021 12:30:00 AM 0.02 32.036 0.071 6.99 30.94 14.25
2/9/2021 12:45:00 AM 0.02 32.036 0.071 7 54.99 14.25
2/9/2021 1:00:00 AM 0.02 32.036 0.071 6.99 37.06 14.25
2/9/2021 1:15:00 AM 0.02 32.036 0.071 6.99 28.62 14.25
2/9/2021 1:30:00 AM 0.02 32.036 0.071 7 43.54 14.24
2/9/2021 1:45:00 AM 0.02 32.036 0.071 6.99 29.34 14.24
2/9/2021 2:00:00 AM 0.02 32.036 0.071 6.99 35.85 14.24
2/9/2021 2:15:00 AM 0.02 32.036 0.071 7 38.5 14.24
2/9/2021 2:30:00 AM 0.02 32.036 0.071 6.99 95.3 14.24
2/9/2021 2:45:00 AM 0.02 32.036 0.071 7 45.68 14.23
2/9/2021 3:00:00 AM 0.03 32.054 0.071 7 32.14 14.23
2/9/2021 3:15:00 AM 0.02 32.036 0.071 7 32.08 14.23
2/9/2021 3:30:00 AM 0.03 32.054 0.071 6.99 42.16 14.23
2/9/2021 3:45:00 AM 0.03 32.054 0.071 7 36.98 14.23
2/9/2021 4:00:00 AM 0.03 32.054 0.071 6.97 25.54 14.22
2/9/2021 4:15:00 AM 0.03 32.054 0.071 7 35.67 14.22
2/9/2021 4:30:00 AM 0.03 32.054 0.071 7 24.77 14.22
2/9/2021 4:45:00 AM 0.03 32.054 0.071 6.99 42.77 14.22
2/9/2021 5:00:00 AM 0.03 32.054 0.071 6.99 80.21 14.21
2/9/2021 5:15:00 AM 0.03 32.054 0.071 6.99 34.3 14.21
2/9/2021 5:30:00 AM 0.03 32.054 0.071 6.99 35.22 14.21
2/9/2021 5:45:00 AM 0.03 32.054 0.071 7 30.07 14.21
2/9/2021 6:00:00 AM 0.04 32.072 0.071 6.99 29.14 14.2
2/9/2021 6:15:00 AM 0.04 32.072 0.071 6.99 36.27 14.2
2/9/2021 6:30:00 AM 0.03 32.054 0.071 7 22.98 14.2
2/9/2021 6:45:00 AM 0.04 32.072 0.071 6.98 31.31 14.21
2/9/2021 7:00:00 AM 0.04 32.072 0.071 7 24.51 14.2
2/9/2021 7:15:00 AM 0.04 32.072 0.071 6.99 59.34 14.2
2/9/2021 7:30:00 AM 0.05 32.09 0.071 6.97 22.1 14.2
2/9/2021 7:45:00 AM 0.05 32.09 0.071 6.99 34.06 14.2
2/9/2021 8:00:00 AM 0.05 32.09 0.071 7 31.84 14.2
2/9/2021 8:15:00 AM 0.05 32.09 0.071 7 57.68 14.2
2/9/2021 8:30:00 AM 0.06 32.108 0.071 6.98 25.85 14.21
2/9/2021 8:45:00 AM 0.06 32.108 0.071 7 21.97 14.2
2/9/2021 9:00:00 AM 0.06 32.108 0.071 7.01 27.96 14.21
2/9/2021 9:15:00 AM 0.05 32.09 0.071 7 28.45 14.22
2/9/2021 9:30:00 AM 0.07 32.126 0.071 7.01 33.59 14.22
2/9/2021 9:45:00 AM 0.08 32.144 0.071 7.01 28.98 14.21
2/9/2021 10:00:00 AM 0.08 32.144 0.071 7.01 42.15 14.22
2/9/2021 10:15:00 AM 0.09 32.162 0.071 7.02 21.07 14.22
2/9/2021 10:30:00 AM 0.1 32.18 0.071 7 27.96 14.21
2/9/2021 10:45:00 AM 0.11 32.198 0.071 7.02 48.99 14.22
2/9/2021 11:00:00 AM 0.12 32.216 0.071 7.02 30.37 14.21
2/9/2021 11:15:00 AM 0.12 32.216 0.071 7.01 26.44 14.21
2/9/2021 11:30:00 AM 0.13 32.234 0.071 7.02 32.74 14.2
2/9/2021 11:45:00 AM 0.14 32.252 0.071 7.01 41.15 14.2
2/9/2021 12:00:00 PM 0.15 32.27 0.071 7.02 33.16 14.19
2/9/2021 12:15:00 PM 0.16 32.288 0.071 6.99 24.17 14.18
2/9/2021 12:30:00 PM 0.16 32.288 0.071 7.02 23.5 14.17
2/9/2021 12:45:00 PM 0.17 32.306 0.071 7.02 64.97 14.17
2/9/2021 1:00:00 PM 0.12 32.216 0.071 7.01 43.84 14.18
2/9/2021 1:15:00 PM 0.15 32.27 0.071 7.02 28.23 14.18
2/9/2021 1:30:00 PM 0.17 32.306 0.071 7.02 28.33 14.17
2/9/2021 1:45:00 PM 0.18 32.324 0.071 7.02 28.51 14.16
2/9/2021 2:00:00 PM 0.19 32.342 0.071 7.02 32.91 14.15
2/9/2021 2:15:00 PM 0.2 32.36 0.071 7.02 29.57 14.15
2/9/2021 2:30:00 PM 0.2 32.36 0.071 7.01 38.09 14.14
2/9/2021 2:45:00 PM 0.21 32.378 0.071 7.02 41.15 14.14
2/9/2021 3:00:00 PM 0.22 32.396 0.071 7.02 42.14 14.13
2/9/2021 3:15:00 PM 0.22 32.396 0.071 7.01 24.32 14.13
2/9/2021 3:30:00 PM 0.14 32.252 0.071 7.01 38.84 14.15
2/9/2021 3:45:00 PM 0.19 32.342 0.071 7.01 28.62 14.14
2/9/2021 4:00:00 PM 0.21 32.378 0.071 7.02 51.16 14.13
2/9/2021 4:15:00 PM 0.22 32.396 0.071 7 47.17 14.13
2/9/2021 4:30:00 PM 0.23 32.414 0.071 7.01 33.49 14.12
2/9/2021 4:45:00 PM 0.24 32.432 0.071 7.01 28.58 14.11
2/9/2021 5:00:00 PM 0.25 32.45 0.071 7.02 28.1 14.11
2/9/2021 5:15:00 PM 0.26 32.468 0.071 7 57.24 14.1
2/9/2021 5:30:00 PM 0.26 32.468 0.071 7.01 38.22 14.09
2/9/2021 5:45:00 PM 0.27 32.486 0.071 7 63.42 14.09
2/9/2021 6:00:00 PM 0.28 32.504 0.074 7 36.18 14.09
2/9/2021 6:15:00 PM 0.28 32.504 0.074 7 56.62 14.08
2/9/2021 6:30:00 PM 0.27 32.486 0.072 7 31.1 14.09
2/9/2021 6:45:00 PM 0.27 32.486 0.072 6.99 48.98 14.09
2/9/2021 7:00:00 PM 0.22 32.396 0.077 7 48.59 14.1
2/9/2021 7:15:00 PM 0.27 32.486 0.077 7.01 27.3 14.1
2/9/2021 7:30:00 PM 0.28 32.504 0.073 6.99 24.88 14.1
2/9/2021 7:45:00 PM 0.29 32.522 0.072 7 29.7 14.1
2/9/2021 8:00:00 PM 0.3 32.54 0.072 7 29.23 14.1
2/9/2021 8:15:00 PM 0.31 32.558 0.072 7 37.36 14.09
2/9/2021 8:30:00 PM 0.32 32.576 0.071 6.99 32.95 14.09
2/9/2021 8:45:00 PM 0.32 32.576 0.071 7.01 84.33 14.09
2/9/2021 9:00:00 PM 0.32 32.576 0.071 7.01 44.33 14.09
2/9/2021 9:15:00 PM 0.33 32.594 0.071 7.01 40.11 14.08
2/9/2021 9:30:00 PM 0.33 32.594 0.071 7 27.86 14.09
2/9/2021 9:45:00 PM 0.33 32.594 0.071 6.99 43.62 14.1
2/9/2021 10:00:00 PM 0.28 32.504 0.071 7.01 35.82 14.1
2/9/2021 10:15:00 PM 0.31 32.558 0.071 7 34.52 14.1
2/9/2021 10:30:00 PM 0.32 32.576 0.071 6.98 27.73 14.1
2/9/2021 10:45:00 PM 0.33 32.594 0.071 7 36.34 14.1
2/9/2021 11:00:00 PM 0.33 32.594 0.071 6.99 30.41 14.09
2/9/2021 11:15:00 PM 0.34 32.612 0.071 7.01 24.57 14.09
2/9/2021 11:30:00 PM 0.35 32.63 0.071 7 47.36 14.09
2/9/2021 11:45:00 PM 0.35 32.63 0.071 7 26.58 14.09
2/10/2021 12:00:00 AM 0.35 32.63 0.071 7.01 45.31 14.09
2/10/2021 12:15:00 AM 0.35 32.63 0.071 7.01 30.2 14.09
2/10/2021 12:30:00 AM 0.36 32.648 0.071 7.01 27.86 14.09
2/10/2021 12:45:00 AM 0.36 32.648 0.071 6.98 19.51 14.09
2/10/2021 1:00:00 AM 0.36 32.648 0.071 7.01 36.1 14.1
2/10/2021 1:15:00 AM 0.36 32.648 0.071 7.01 48.02 14.09
2/10/2021 1:30:00 AM 0.36 32.648 0.071 7.01 84.66 14.09
2/10/2021 1:45:00 AM 0.36 32.648 0.071 7 37.32 14.09
2/10/2021 2:00:00 AM 0.36 32.648 0.071 7 26.27 14.1
2/10/2021 2:15:00 AM 0.36 32.648 0.071 7 47.37 14.09
2/10/2021 2:30:00 AM 0.36 32.648 0.071 7.01 28.8 14.1
2/10/2021 2:45:00 AM 0.36 32.648 0.071 7 49.46 14.1
2/10/2021 3:00:00 AM 0.36 32.648 0.071 7.01 25.08 14.1
2/10/2021 3:15:00 AM 0.36 32.648 0.071 7.01 52.04 14.1
2/10/2021 3:30:00 AM 0.35 32.63 0.071 7 48.3 14.1
2/10/2021 3:45:00 AM 0.36 32.648 0.071 7.01 44.99 14.1
2/10/2021 4:00:00 AM 0.35 32.63 0.071 7.01 36.25 14.11
2/10/2021 4:15:00 AM 0.35 32.63 0.071 7.01 39.25 14.11
2/10/2021 4:30:00 AM 0.34 32.612 0.071 6.99 69.96 14.12
2/10/2021 4:45:00 AM 0.35 32.63 0.071 7.01 26.94 14.12
2/10/2021 5:00:00 AM 0.33 32.594 0.071 7.01 33.98 14.12
2/10/2021 5:15:00 AM 0.33 32.594 0.071 7.01 37.06 14.13
2/10/2021 5:30:00 AM 0.33 32.594 0.071 7.01 32.03 14.13
2/10/2021 5:45:00 AM 0.32 32.576 0.071 6.98 27.79 14.13
2/10/2021 6:00:00 AM 0.32 32.576 0.071 7.01 25.48 14.14
2/10/2021 6:15:00 AM 0.32 32.576 0.071 7.01 31.5 14.14
2/10/2021 6:30:00 AM 0.31 32.558 0.071 7.01 42.18 14.15
2/10/2021 6:45:00 AM 0.31 32.558 0.071 7.01 26.96 14.15
2/10/2021 7:00:00 AM 0.3 32.54 0.071 7 30.38 14.15
2/10/2021 7:15:00 AM 0.3 32.54 0.071 7.01 79.2 14.16
2/10/2021 7:30:00 AM 0.29 32.522 0.071 7.01 35.19 14.16
2/10/2021 7:45:00 AM 0.29 32.522 0.071 7 54.86 14.17
2/10/2021 8:00:00 AM 0.28 32.504 0.071 7.01 38.08 14.18
2/10/2021 8:15:00 AM 0.28 32.504 0.071 6.99 21.53 14.18
2/10/2021 8:30:00 AM 0.28 32.504 0.071 7.02 24.17 14.19
2/10/2021 8:45:00 AM 0.27 32.486 0.071 7.01 61.9 14.2
2/10/2021 9:00:00 AM 0.26 32.468 0.071 7.02 42.87 14.2
2/10/2021 9:15:00 AM 0.26 32.468 0.071 7.01 54.74 14.21
2/10/2021 9:30:00 AM 0.27 32.486 0.071 7.03 29.49 14.21
2/10/2021 9:45:00 AM 0.27 32.486 0.071 7.03 42.52 14.21
2/10/2021 10:00:00 AM 0.27 32.486 0.071 7.02 25.99 14.21
2/10/2021 10:15:00 AM 0.27 32.486 0.071 7.03 23.27 14.22
2/10/2021 10:30:00 AM 0.27 32.486 0.071 7.02 22.09 14.21
2/10/2021 10:45:00 AM 0.27 32.486 0.071 7.04 40.42 14.21
2/10/2021 11:00:00 AM 0.25 32.45 0.071 7.02 32.98 14.21
2/10/2021 11:15:00 AM 0.28 32.504 0.071 7.03 37.32 14.21
2/10/2021 11:30:00 AM 0.28 32.504 0.071 7.03 26.28 14.21
2/10/2021 11:45:00 AM 0.27 32.486 0.071 7.03 24.98 14.21
2/10/2021 12:00:00 PM 0.28 32.504 0.071 7.01 28.67 14.2
2/10/2021 12:15:00 PM 0.28 32.504 0.071 7.03 30.58 14.21
2/10/2021 12:30:00 PM 0.29 32.522 0.071 7.02 21.64 14.21
2/10/2021 12:45:00 PM 0.29 32.522 0.071 7.04 58.67 14.2
2/10/2021 1:00:00 PM 0.28 32.504 0.071 7.04 19.78 14.19
2/10/2021 1:15:00 PM 0.3 32.54 0.071 7.04 26.04 14.18
2/10/2021 1:30:00 PM 0.31 32.558 0.071 7.04 26.78 14.18
2/10/2021 1:45:00 PM 0.31 32.558 0.071 7.03 45.13 14.18
2/10/2021 2:00:00 PM 0.31 32.558 0.071 7.03 27.65 14.17
2/10/2021 2:15:00 PM 0.29 32.522 0.071 7.02 24.17 14.17
2/10/2021 2:30:00 PM 0.31 32.558 0.071 7.03 22.76 14.17
2/10/2021 2:45:00 PM 0.32 32.576 0.071 7.04 36.07 14.16
2/10/2021 3:00:00 PM 0.32 32.576 0.071 7.03 30.35 14.16
2/10/2021 3:15:00 PM 0.32 32.576 0.071 7.04 26.1 14.15
2/10/2021 3:30:00 PM 0.33 32.594 0.071 7.02 42.18 14.14
2/10/2021 3:45:00 PM 0.33 32.594 0.071 7.03 26.64 14.15
2/10/2021 4:00:00 PM 0.33 32.594 0.071 7.02 36.85 14.14
2/10/2021 4:15:00 PM 0.33 32.594 0.071 7.03 45.93 14.13
2/10/2021 4:30:00 PM 0.32 32.576 0.071 7.02 30.38 14.12
2/10/2021 4:45:00 PM 0.32 32.576 0.071 7.03 25.26 14.12
2/10/2021 5:00:00 PM 0.33 32.594 0.072 7.02 46.3 14.12
2/10/2021 5:15:00 PM 0.34 32.612 0.072 7.02 24.03 14.1
2/10/2021 5:30:00 PM 0.34 32.612 0.072 7.01 28.5 14.1
2/10/2021 5:45:00 PM 0.34 32.612 0.072 6.99 51.62 14.09
2/10/2021 6:00:00 PM 0.34 32.612 0.072 7.01 65.13 14.09
2/10/2021 6:15:00 PM 0.34 32.612 0.072 7.01 43.69 14.09
2/10/2021 6:30:00 PM 0.35 32.63 0.072 7 55.87 14.1
2/10/2021 6:45:00 PM 0.35 32.63 0.072 7.02 25.74 14.09
2/10/2021 7:00:00 PM 0.34 32.612 0.072 6.98 34.8 14.09
2/10/2021 7:15:00 PM 0.26 32.468 0.072 7.01 58.07 14.1
2/10/2021 7:30:00 PM 0.32 32.576 0.072 7.01 22.33 14.11
2/10/2021 7:45:00 PM 0.34 32.612 0.072 7 22.87 14.09
2/10/2021 8:00:00 PM 0.35 32.63 0.072 7.01 65.3 14.09
2/10/2021 8:15:00 PM 0.36 32.648 0.072 7.01 32.73 14.09
2/10/2021 8:30:00 PM 0.36 32.648 0.072 7.01 32.06 14.08
2/10/2021 8:45:00 PM 0.37 32.666 0.072 7.01 28.25 14.08
2/10/2021 9:00:00 PM 0.37 32.666 0.072 7.01 49.72 14.07
2/10/2021 9:15:00 PM 0.37 32.666 0.072 6.98 39.8 14.08
2/10/2021 9:30:00 PM 0.37 32.666 0.072 7.02 51.68 14.08
2/10/2021 9:45:00 PM 0.36 32.648 0.072 7.01 28.98 14.08
2/10/2021 10:00:00 PM 0.28 32.504 0.072 7 31.35 14.09
2/10/2021 10:15:00 PM 0.31 32.558 0.072 7.01 26.68 14.1
2/10/2021 10:30:00 PM 0.33 32.594 0.072 7.01 44.34 14.1
2/10/2021 10:45:00 PM 0.33 32.594 0.072 6.98 24.5 14.09
2/10/2021 11:00:00 PM 0.34 32.612 0.072 7.01 27.69 14.09
2/10/2021 11:15:00 PM 0.35 32.63 0.072 7.01 96.88 14.08
2/10/2021 11:30:00 PM 0.36 32.648 0.072 7.01 32.63 14.09
2/10/2021 11:45:00 PM 0.36 32.648 0.072 7.01 36.27 14.08
2/11/2021 12:00:00 AM 0.36 32.648 0.072 7.01 28.44 14.08
2/11/2021 12:15:00 AM 0.36 32.648 0.072 7.01 38.25 14.07
2/11/2021 12:30:00 AM 0.36 32.648 0.072 7.01 33.63 14.08
2/11/2021 12:45:00 AM 0.37 32.666 0.072 7.02 47.14 14.07
2/11/2021 1:00:00 AM 0.37 32.666 0.072 7.02 26.1 14.07
2/11/2021 1:15:00 AM 0.37 32.666 0.072 7.01 38.13 14.07
2/11/2021 1:30:00 AM 0.37 32.666 0.072 7.01 36.92 14.07
2/11/2021 1:45:00 AM 0.37 32.666 0.072 7.01 22.12 14.07
2/11/2021 2:00:00 AM 0.36 32.648 0.072 7.01 32.06 14.07
2/11/2021 2:15:00 AM 0.34 32.612 0.072 7.01 39.04 14.07
2/11/2021 2:30:00 AM 0.36 32.648 0.072 6.98 41.89 14.07
2/11/2021 2:45:00 AM 0.35 32.63 0.072 7.01 34.88 14.07
2/11/2021 3:00:00 AM 0.36 32.648 0.072 7.01 29.08 14.07
2/11/2021 3:15:00 AM 0.36 32.648 0.072 7.01 30.62 14.07
2/11/2021 3:30:00 AM 0.36 32.648 0.072 7.01 35.01 14.07
2/11/2021 3:45:00 AM 0.36 32.648 0.072 7.01 30.08 14.08
2/11/2021 4:00:00 AM 0.36 32.648 0.072 7 30.33 14.07
2/11/2021 4:15:00 AM 0.36 32.648 0.072 7.02 20.34 14.07
2/11/2021 4:30:00 AM 0.35 32.63 0.072 7.01 39.86 14.07
2/11/2021 4:45:00 AM 0.35 32.63 0.072 7 32.85 14.07
2/11/2021 5:00:00 AM 0.25 32.45 0.072 7.01 18.33 14.1
2/11/2021 5:15:00 AM 0.3 32.54 0.072 7.01 28.22 14.11
2/11/2021 5:30:00 AM 0.31 32.558 0.072 7.02 44.64 14.1
2/11/2021 5:45:00 AM 0.32 32.576 0.072 7.01 43.34 14.1
2/11/2021 6:00:00 AM 0.33 32.594 0.072 7.02 24.02 14.1
2/11/2021 6:15:00 AM 0.33 32.594 0.072 7 46.78 14.1
2/11/2021 6:30:00 AM 0.34 32.612 0.072 7.01 28.07 14.09
2/11/2021 6:45:00 AM 0.34 32.612 0.072 7.01 31.6 14.09
2/11/2021 7:00:00 AM 0.34 32.612 0.072 7.01 45.73 14.09
2/11/2021 7:15:00 AM 0.34 32.612 0.072 7.01 36.2 14.1
2/11/2021 7:30:00 AM 0.34 32.612 0.072 7.02 23.6 14.11
2/11/2021 7:45:00 AM 0.34 32.612 0.072 7 26.35 14.11
2/11/2021 8:00:00 AM 0.22 32.396 0.072 7.01 41.36 14.13
2/11/2021 8:15:00 AM 0.23 32.414 0.072 7 47.02 14.16
2/11/2021 8:30:00 AM 0.26 32.468 0.072 7.02 43.75 14.15
2/11/2021 8:45:00 AM 0.28 32.504 0.072 7.01 36.49 14.15
2/11/2021 9:00:00 AM 0.29 32.522 0.072 7.03 55.47 14.15
2/11/2021 9:15:00 AM 0.3 32.54 0.072 6.99 28.42 14.14
2/11/2021 9:30:00 AM 0.31 32.558 0.072 7.02 25.52 14.15
2/11/2021 9:45:00 AM 0.31 32.558 0.072 7.01 27.25 14.14
2/11/2021 10:00:00 AM 0.32 32.576 0.072 7.03 86.55 14.15
2/11/2021 10:15:00 AM 0.32 32.576 0.072 7.01 26.06 14.16
2/11/2021 10:30:00 AM 0.32 32.576 0.072 7.03 39.52 14.16
2/11/2021 10:45:00 AM 0.32 32.576 0.072 7.03 58.81 14.15
2/11/2021 11:00:00 AM 0.33 32.594 0.072 7.03 37.36 14.16
2/11/2021 11:15:00 AM 0.34 32.612 0.072 7.04 24.93 14.16
2/11/2021 11:30:00 AM 0.35 32.63 0.072 7.04 55.05 14.16
2/11/2021 11:45:00 AM 0.35 32.63 0.072 7.04 34.29 14.16
2/11/2021 12:00:00 PM 0.35 32.63 0.072 7.04 20.24 14.15
2/11/2021 12:15:00 PM 0.35 32.63 0.072 7.04 67.8 14.14
2/11/2021 12:30:00 PM 0.35 32.63 0.072 7.04 24.55 14.14
2/11/2021 12:45:00 PM 0.35 32.63 0.072 7.04 28.65 14.14
2/11/2021 1:00:00 PM 0.35 32.63 0.072 7.04 33.55 14.13
2/11/2021 1:15:00 PM 0.35 32.63 0.072 7.05 23.09 14.14
2/11/2021 1:30:00 PM 0.02 32.036 0.047 8.52 7.84 16.1
2/11/2021 1:45:00 PM 0.33 32.594 0.071 7.54 55.88 14.31
2/11/2021 2:00:00 PM 0.36 32.648 0.069 7.53 26.79 14.14
2/11/2021 2:15:00 PM 0.39 32.702 0.069 7.48 40.11 14.1
2/11/2021 2:30:00 PM 0.39 32.702 0.07 7.46 25.91 14.09
2/11/2021 2:45:00 PM 0.41 32.738 0.07 7.45 111.77 14.07
2/11/2021 3:00:00 PM 0.41 32.738 0.07 7.23 30.67 14.07
2/11/2021 3:15:00 PM 0.41 32.738 0.07 7.44 36.96 14.06
2/11/2021 3:30:00 PM 0.42 32.756 0.071 7.43 30.61 14.06
2/11/2021 3:45:00 PM 0.42 32.756 0.07 7.41 40.25 14.06
2/11/2021 4:00:00 PM 0.43 32.774 0.07 7.22 24.5 14.05
2/11/2021 4:15:00 PM 0.43 32.774 0.07 7.41 55.01 14.05
2/11/2021 4:30:00 PM 0.43 32.774 0.07 7.39 32.9 14.05
2/11/2021 4:45:00 PM 0.42 32.756 0.071 7.2 29.09 14.05
2/11/2021 5:00:00 PM 0.43 32.774 0.07 7.36 44.53 14.04
2/11/2021 5:15:00 PM 0.42 32.756 0.071 7.37 31.49 14.04
2/11/2021 5:30:00 PM 0.4 32.72 0.071 7.19 27.79 14.04
2/11/2021 5:45:00 PM 0.41 32.738 0.071 7.37 38.05 14.04
2/11/2021 6:00:00 PM 0.41 32.738 0.071 7.35 36.62 14.03
2/11/2021 6:15:00 PM 0.41 32.738 0.07 7.34 30.89 14.04
2/11/2021 6:30:00 PM 0.41 32.738 0.07 7.34 22.24 14.04
2/11/2021 6:45:00 PM 0.41 32.738 0.07 7.33 33.62 14.04
2/11/2021 7:00:00 PM 0.41 32.738 0.071 7.15 29.56 14.04
2/11/2021 7:15:00 PM 0.41 32.738 0.07 7.33 22.08 14.05
2/11/2021 7:30:00 PM 0.41 32.738 0.07 7.29 35.76 14.04
2/11/2021 7:45:00 PM 0.41 32.738 0.07 7.26 33.96 14.05
2/11/2021 8:00:00 PM 0.41 32.738 0.071 7.21 27.03 14.05
2/11/2021 8:15:00 PM 0.41 32.738 0.07 7.22 40.24 14.04
2/11/2021 8:30:00 PM 0.41 32.738 0.07 7.34 22.93 14.05
2/11/2021 8:45:00 PM 0.41 32.738 0.07 7.32 44.07 14.05
2/11/2021 9:00:00 PM 0.4 32.72 0.071 7.31 31.53 14.05
2/11/2021 9:15:00 PM 0.4 32.72 0.07 7.31 42.59 14.05
2/11/2021 9:30:00 PM 0.39 32.702 0.07 7.31 23.9 14.06
2/11/2021 9:45:00 PM 0.37 32.666 0.07 7.31 27.94 14.06
2/11/2021 10:00:00 PM 0.38 32.684 0.07 7.28 26.09 14.06
2/11/2021 10:15:00 PM 0.38 32.684 0.071 7.3 20.28 14.07
2/11/2021 10:30:00 PM 0.38 32.684 0.07 7.29 23.46 14.06
2/11/2021 10:45:00 PM 0.37 32.666 0.07 7.28 50.83 14.07
2/11/2021 11:00:00 PM 0.36 32.648 0.071 7.3 18.8 14.07
2/11/2021 11:15:00 PM 0.35 32.63 0.071 7.28 30.63 14.07
2/11/2021 11:30:00 PM 0.35 32.63 0.071 7.29 31.09 14.07
2/11/2021 11:45:00 PM 0.34 32.612 0.071 7.29 24.69 14.08
2/12/2021 12:00:00 AM 0.33 32.594 0.07 7.13 34.6 14.08
2/12/2021 12:15:00 AM 0.33 32.594 0.07 7.21 22.69 14.09
2/12/2021 12:30:00 AM 0.32 32.576 0.07 7.3 40.8 14.09
2/12/2021 12:45:00 AM 0.31 32.558 0.07 7.15 42.6 14.09
2/12/2021 1:00:00 AM 0.3 32.54 0.071 7.3 22.78 14.09
2/12/2021 1:15:00 AM 0.3 32.54 0.07 7.29 39.7 14.1
2/12/2021 1:30:00 AM 0.29 32.522 0.07 7.28 44.33 14.1
2/12/2021 1:45:00 AM 0.28 32.504 0.07 7.28 38.12 14.11
2/12/2021 2:00:00 AM 0.26 32.468 0.071 7.28 54.98 14.12
2/12/2021 2:15:00 AM 0.25 32.45 0.071 7.27 20.78 14.12

These are provisional data and have not been subject to a quality assurance process, but rather are the raw data reported by the instrument.
H: value is above sensor operating range
L: value is below sensor operating range
Offline: station is not reporting data
NC: parameter is not collected at site

Data Availability & Limitations

Uncertainty and potential for error can be associated with environmental monitoring data. Provisional data have not been subject to a quality assurance process, but rather are the raw data reported by the instrument. Data users are cautioned to consider carefully the provisional nature of the information before using it for decisions that concern personal or public safety or the conduct of business that involves substantial monetary or operational consequences.

Approved data are currently available by request by emailing: srbc@srbc.net. Approved data have been subject to a quality assurance process to correct for equipment or fouling drift. Data recorded during equipment malfunctions have been removed.

View Historical Stations that have been discontinued.